createdAt,value
2022-09-05T00:00:04.609Z,100433.94
2022-09-05T00:03:44.202Z,100435.91
2022-09-05T00:06:15.706Z,100432.47
2022-09-05T00:08:51.664Z,100433.59
2022-09-05T00:11:43.125Z,100413.41
2022-09-05T00:15:17.146Z,100446.06
2022-09-05T00:18:42.475Z,100441.91
2022-09-05T00:24:30.624Z,100442.34
2022-09-05T00:24:34.703Z,100440.00
2022-09-05T00:27:24.038Z,100433.06
2022-09-05T00:31:07.557Z,100439.25
2022-09-05T00:33:36.830Z,100435.91
2022-09-05T00:36:11.155Z,100431.66
2022-09-05T00:38:42.021Z,100420.78
2022-09-05T00:41:13.779Z,100411.50
2022-09-05T00:43:44.440Z,100391.81
2022-09-05T00:46:23.658Z,100426.81
2022-09-05T00:49:03.720Z,100428.97
2022-09-05T00:52:01.247Z,100428.00
2022-09-05T00:54:50.168Z,100429.97
2022-09-05T00:57:55.974Z,100429.97
2022-09-05T01:00:25.186Z,100414.53
2022-09-05T01:03:20.343Z,100424.50
2022-09-05T01:06:20.699Z,100426.34
2022-09-05T01:08:48.130Z,100415.75
2022-09-05T01:11:33.949Z,100414.16
2022-09-05T01:14:16.363Z,100423.06
2022-09-05T01:17:16.902Z,100394.09
2022-09-05T01:20:19.418Z,100399.28
2022-09-05T01:23:18.363Z,100404.31
2022-09-05T01:26:22.673Z,100412.16
2022-09-05T01:29:16.103Z,100401.69
2022-09-05T01:31:53.316Z,100403.41
2022-09-05T01:34:41.870Z,100404.31
2022-09-05T01:37:47.421Z,100401.94
2022-09-05T01:40:20.613Z,100407.13
2022-09-05T01:43:09.415Z,100398.78
2022-09-05T01:45:52.199Z,100370.13
2022-09-05T01:48:47.411Z,100396.19
2022-09-05T01:51:31.657Z,100391.06
2022-09-05T01:54:24.474Z,100378.31
2022-09-05T01:57:19.964Z,100390.00
2022-09-05T02:00:01.360Z,100391.38
2022-09-05T02:02:50.501Z,100394.75
2022-09-05T02:05:48.779Z,100393.94
2022-09-05T02:08:29.979Z,100394.84
2022-09-05T02:11:14.692Z,100380.66
2022-09-05T02:14:04.214Z,100402.06
2022-09-05T02:16:44.477Z,100408.00
2022-09-05T02:19:15.202Z,100411.28
2022-09-05T02:22:11.626Z,100417.59
2022-09-05T02:24:44.881Z,100397.78
2022-09-05T02:28:05.175Z,100390.06
2022-09-05T02:30:25.144Z,100408.31
2022-09-05T02:33:18.327Z,100396.78
2022-09-05T02:36:00.696Z,100406.63
2022-09-05T02:44:57.682Z,100412.56
2022-09-05T02:45:09.793Z,100403.09
2022-09-05T02:45:13.247Z,100420.22
2022-09-05T02:47:37.660Z,100411.47
2022-09-05T02:56:31.667Z,100408.69
2022-09-05T02:57:33.105Z,100418.06
2022-09-05T02:57:36.862Z,100408.66
2022-09-05T02:59:54.315Z,100405.91
2022-09-05T03:02:36.516Z,100389.13
2022-09-05T03:05:44.354Z,100417.63
2022-09-05T03:09:09.990Z,100415.22
2022-09-05T03:12:42.313Z,100407.25
2022-09-05T03:15:42.741Z,100396.91
2022-09-05T03:22:37.365Z,100408.44
2022-09-05T03:33:31.831Z,100425.28
2022-09-05T03:36:22.916Z,100420.78
2022-09-05T03:39:18.131Z,100414.78
2022-09-05T03:42:19.041Z,100413.19
2022-09-05T03:45:07.692Z,100413.06
2022-09-05T03:48:23.136Z,100403.34
2022-09-05T03:57:06.747Z,100404.69
2022-09-05T03:57:22.885Z,100406.47
2022-09-05T03:57:41.821Z,100411.78
2022-09-05T04:00:53.267Z,100406.47
2022-09-05T04:08:11.352Z,100401.13
2022-09-05T04:08:24.349Z,100374.72
2022-09-05T04:09:57.338Z,100410.47
2022-09-05T04:12:32.916Z,100389.13
2022-09-05T04:15:04.138Z,100416.38
2022-09-05T04:17:41.317Z,100409.53
2022-09-05T04:20:23.247Z,100408.56
2022-09-05T04:23:07.960Z,100422.41
2022-09-05T04:26:12.399Z,100412.81
2022-09-05T04:29:08.850Z,100410.00
2022-09-05T04:32:18.816Z,100409.06
2022-09-05T04:34:55.792Z,100407.91
2022-09-05T04:38:16.750Z,100409.59
2022-09-05T04:41:03.601Z,100380.69
2022-09-05T04:43:52.882Z,100392.09
2022-09-05T04:47:15.588Z,100384.94
2022-09-05T04:50:11.771Z,100391.13
2022-09-05T05:07:09.188Z,100405.63
2022-09-05T05:49:05.924Z,100397.25
2022-09-05T05:52:35.106Z,100385.97
2022-09-05T06:29:01.691Z,100413.09
2022-09-05T06:31:49.910Z,100405.88
2022-09-05T06:34:35.530Z,100409.28
2022-09-05T06:37:31.636Z,100410.00
2022-09-05T06:40:08.064Z,100404.75
2022-09-05T06:43:09.762Z,100405.84
2022-09-05T06:46:10.449Z,100410.00
2022-09-05T06:49:33.388Z,100412.66
2022-09-05T06:51:45.151Z,100410.78
2022-09-05T06:54:19.502Z,100404.38
2022-09-05T06:57:15.719Z,100404.63
2022-09-05T07:00:22.634Z,100406.31
2022-09-05T07:03:07.568Z,100401.91
2022-09-05T07:05:45.073Z,100392.63
2022-09-05T07:08:37.197Z,100402.28
2022-09-05T07:11:31.077Z,100400.06
2022-09-05T07:14:18.480Z,100399.81
2022-09-05T07:16:53.150Z,100400.31
2022-09-05T07:19:33.346Z,100395.09
2022-09-05T07:22:47.893Z,100402.50
2022-09-05T07:25:11.292Z,100389.94
2022-09-05T07:28:28.235Z,100392.13
2022-09-05T07:31:02.956Z,100397.09
2022-09-05T07:33:31.717Z,100402.09
2022-09-05T07:36:23.350Z,100396.41
2022-09-05T07:39:12.290Z,100384.53
2022-09-05T07:41:53.647Z,100410.41
2022-09-05T07:44:44.488Z,100398.06
2022-09-05T07:47:30.558Z,100394.50
2022-09-05T07:52:52.497Z,100404.47
2022-09-05T07:56:50.337Z,100396.03
2022-09-05T07:57:09.519Z,100394.97
2022-09-05T07:58:52.934Z,100398.63
2022-09-05T08:01:22.979Z,100395.19
2022-09-05T08:03:56.312Z,100397.47
2022-09-05T08:06:49.351Z,100390.94
2022-09-05T08:10:08.549Z,100413.38
2022-09-05T08:12:27.850Z,100394.75
2022-09-05T08:15:14.093Z,100399.41
2022-09-05T08:18:08.372Z,100390.63
2022-09-05T08:20:53.606Z,100392.13
2022-09-05T08:23:39.456Z,100382.00
2022-09-05T08:26:12.172Z,100383.72
2022-09-05T08:29:11.398Z,100381.25
2022-09-05T08:32:08.771Z,100381.97
2022-09-05T08:34:52.046Z,100379.91
2022-09-05T08:37:26.039Z,100384.28
2022-09-05T08:40:20.025Z,100376.16
2022-09-05T08:44:05.542Z,100379.91
2022-09-05T08:46:41.199Z,100373.31
2022-09-05T08:48:58.491Z,100373.13
2022-09-05T08:52:18.831Z,100380.03
2022-09-05T08:55:06.886Z,100371.81
2022-09-05T08:57:58.557Z,100370.97
2022-09-05T09:00:31.375Z,100364.59
2022-09-05T09:03:12.036Z,100376.59
2022-09-05T09:06:12.067Z,100372.38
2022-09-05T09:08:51.519Z,100366.53
2022-09-05T09:11:27.783Z,100373.31
2022-09-05T09:14:32.280Z,100381.75
2022-09-05T09:17:21.122Z,100369.72
2022-09-05T09:20:10.156Z,100364.91
2022-09-05T09:22:43.197Z,100364.56
2022-09-05T09:25:16.589Z,100358.06
2022-09-05T09:28:46.514Z,100364.47
2022-09-05T09:30:54.882Z,100350.72
2022-09-05T09:33:41.095Z,100355.56
2022-09-05T09:36:25.070Z,100328.50
2022-09-05T09:39:38.295Z,100348.97
2022-09-05T09:42:37.656Z,100348.78
2022-09-05T09:45:30.327Z,100346.66
2022-09-05T09:48:10.274Z,100355.84
2022-09-05T09:51:08.564Z,100349.03
2022-09-05T09:53:49.303Z,100337.75
2022-09-05T09:56:38.496Z,100352.63
2022-09-05T09:59:30.637Z,100345.09
2022-09-05T10:03:17.106Z,100343.03
2022-09-05T10:10:46.312Z,100349.28
2022-09-05T10:11:08.007Z,100333.78
2022-09-05T10:12:32.872Z,100348.66
2022-09-05T10:15:31.088Z,100343.94
2022-09-05T10:18:24.157Z,100344.53
2022-09-05T10:21:16.630Z,100345.56
2022-09-05T10:24:21.493Z,100341.97
2022-09-05T10:27:19.359Z,100330.78
2022-09-05T10:29:55.391Z,100336.06
2022-09-05T10:35:07.767Z,100324.72
2022-09-05T10:35:37.360Z,100335.94
2022-09-05T10:38:12.580Z,100344.88
2022-09-05T10:41:19.963Z,100319.34
2022-09-05T10:43:42.612Z,100324.63
2022-09-05T10:46:50.104Z,100336.09
2022-09-05T10:49:29.942Z,100327.16
2022-09-05T10:52:19.907Z,100337.38
2022-09-05T10:55:14.832Z,100333.88
2022-09-05T10:58:03.858Z,100329.25
2022-09-05T11:02:23.487Z,100334.38
2022-09-05T11:04:09.285Z,100330.97
2022-09-05T11:06:51.881Z,100314.44
2022-09-05T11:09:37.645Z,100306.22
2022-09-05T11:12:14.939Z,100319.22
2022-09-05T11:14:53.659Z,100335.75
2022-09-05T11:17:55.284Z,100325.31
2022-09-05T11:20:34.844Z,100318.38
2022-09-05T11:23:25.883Z,100324.38
2022-09-05T11:26:06.320Z,100310.53
2022-09-05T11:29:10.846Z,100313.00
2022-09-05T11:33:01.798Z,100318.13
2022-09-05T11:39:52.703Z,100303.72
2022-09-05T11:39:57.826Z,100299.41
2022-09-05T11:41:24.389Z,100297.66
2022-09-05T11:44:25.869Z,100295.88
2022-09-05T11:47:29.650Z,100304.66
2022-09-05T11:50:25.430Z,100305.22
2022-09-05T11:53:43.532Z,100285.75
2022-09-05T11:56:41.904Z,100305.31
2022-09-05T11:59:35.072Z,100300.59
2022-09-05T12:02:27.456Z,100299.41
2022-09-05T12:05:48.789Z,100291.41
2022-09-05T12:08:56.055Z,100284.22
2022-09-05T12:11:52.318Z,100287.22
2022-09-05T12:15:07.275Z,100281.66
2022-09-05T12:18:19.138Z,100270.22
2022-09-05T12:21:19.883Z,100267.66
2022-09-05T12:25:25.939Z,100270.28
2022-09-05T12:27:35.633Z,100264.56
2022-09-05T12:30:13.880Z,100257.53
2022-09-05T12:35:35.332Z,100277.44
2022-09-05T12:40:01.147Z,100258.97
2022-09-05T12:40:55.594Z,100251.09
2022-09-05T12:42:31.905Z,100251.56
2022-09-05T12:45:24.828Z,100242.19
2022-09-05T12:48:07.848Z,100240.28
2022-09-05T12:50:57.445Z,100238.53
2022-09-05T12:53:25.463Z,100232.31
2022-09-05T12:56:38.670Z,100237.44
2022-09-05T13:03:09.504Z,100227.59
2022-09-05T13:03:13.074Z,100247.91
2022-09-05T13:04:47.339Z,100239.16
2022-09-05T13:07:53.116Z,100234.50
2022-09-05T13:14:49.000Z,100243.75
2022-09-05T13:14:57.188Z,100236.47
2022-09-05T13:16:30.949Z,100238.06
2022-09-05T13:19:07.912Z,100238.13
2022-09-05T13:21:40.775Z,100242.78
2022-09-05T13:24:22.293Z,100233.13
2022-09-05T13:26:55.746Z,100238.19
2022-09-05T13:29:28.742Z,100224.00
2022-09-05T13:38:02.742Z,100221.88
2022-09-05T13:38:17.894Z,100231.53
2022-09-05T13:38:37.662Z,100230.31
2022-09-05T13:41:00.360Z,100223.97
2022-09-05T13:43:38.529Z,100242.75
2022-09-05T13:46:11.196Z,100236.00
2022-09-05T13:51:47.512Z,100231.56
2022-09-05T13:54:42.097Z,100240.75
2022-09-05T13:57:31.731Z,100233.59
2022-09-05T14:00:27.959Z,100236.84
2022-09-05T14:03:31.639Z,100239.09
2022-09-05T14:06:47.262Z,100240.78
2022-09-05T14:09:58.105Z,100238.31
2022-09-05T14:12:47.923Z,100238.00
2022-09-05T14:15:41.598Z,100236.84
2022-09-05T14:18:20.226Z,100236.66
2022-09-05T14:21:10.501Z,100231.47
2022-09-05T14:24:03.209Z,100233.06
2022-09-05T14:26:51.603Z,100234.75
2022-09-05T14:29:26.480Z,100236.06
2022-09-05T14:37:35.754Z,100231.13
2022-09-05T14:37:41.623Z,100232.63
2022-09-05T14:38:44.207Z,100226.34
2022-09-05T14:41:25.613Z,100226.53
2022-09-05T14:44:20.748Z,100229.31
2022-09-05T14:47:06.949Z,100234.31
2022-09-05T14:49:49.581Z,100237.63
2022-09-05T14:52:25.653Z,100243.09
2022-09-05T15:02:42.723Z,100235.97
2022-09-05T15:02:50.744Z,100218.84
2022-09-05T15:06:41.276Z,100218.13
2022-09-05T15:11:24.216Z,100227.50
2022-09-05T15:12:33.240Z,100228.25
2022-09-05T15:15:07.689Z,100219.25
2022-09-05T15:17:38.024Z,100216.78
2022-09-05T15:20:08.247Z,100212.84
2022-09-05T15:22:39.821Z,100215.19
2022-09-05T15:25:18.633Z,100215.47
2022-09-05T15:27:47.083Z,100216.59
2022-09-05T15:30:31.891Z,100225.25
2022-09-05T15:33:11.949Z,100212.56
2022-09-05T15:35:43.857Z,100214.44
2022-09-05T15:38:22.651Z,100210.75
2022-09-05T15:41:29.312Z,100197.03
2022-09-05T15:44:09.419Z,100228.91
2022-09-05T15:46:49.545Z,100224.78
2022-09-05T15:49:37.956Z,100224.22
2022-09-05T15:52:37.659Z,100225.59
2022-09-05T15:55:45.316Z,100228.41
2022-09-05T15:58:19.379Z,100227.84
2022-09-05T16:00:55.936Z,100224.56
2022-09-05T16:05:56.101Z,100237.38
2022-09-05T16:10:45.831Z,100227.91
2022-09-05T16:10:50.409Z,100233.69
2022-09-05T16:12:34.672Z,100234.22
2022-09-05T16:17:29.272Z,100238.13
2022-09-05T16:23:17.071Z,100233.56
2022-09-05T16:23:28.979Z,100222.56
2022-09-05T16:23:42.591Z,100238.81
2022-09-05T16:26:26.113Z,100223.66
2022-09-05T16:28:59.384Z,100246.81
2022-09-05T16:31:40.622Z,100246.72
2022-09-05T16:34:22.839Z,100243.50
2022-09-05T16:37:08.602Z,100245.97
2022-09-05T16:39:43.459Z,100242.75
2022-09-05T16:42:47.931Z,100247.28
2022-09-05T16:45:27.239Z,100247.84
2022-09-05T16:48:06.976Z,100247.28
2022-09-05T16:50:44.182Z,100246.00
2022-09-05T16:53:30.650Z,100246.72
2022-09-05T16:56:07.775Z,100241.03
2022-09-05T16:58:42.642Z,100244.63
2022-09-05T17:01:57.798Z,100251.81
2022-09-05T17:05:03.976Z,100251.38
2022-09-05T17:08:04.003Z,100253.25
2022-09-05T17:10:33.617Z,100251.63
2022-09-05T17:13:02.798Z,100255.94
2022-09-05T17:15:35.711Z,100260.16
2022-09-05T17:18:21.205Z,100254.47
2022-09-05T17:20:56.106Z,100243.38
2022-09-05T17:28:46.031Z,100251.09
2022-09-05T17:29:34.132Z,100259.16
2022-09-05T17:32:50.241Z,100266.22
2022-09-05T17:35:42.961Z,100260.97
2022-09-05T17:38:24.159Z,100267.84
2022-09-05T17:40:59.670Z,100268.16
2022-09-05T17:43:33.219Z,100268.50
2022-09-05T17:46:22.132Z,100272.22
2022-09-05T17:49:08.636Z,100272.41
2022-09-05T17:51:51.071Z,100276.47
2022-09-05T17:54:30.482Z,100275.94
2022-09-05T18:00:52.222Z,100275.78
2022-09-05T18:03:46.005Z,100281.03
2022-09-05T18:06:16.441Z,100292.50
2022-09-05T18:08:45.581Z,100295.34
2022-09-05T18:11:36.551Z,100292.91
2022-09-05T18:14:24.585Z,100290.94
2022-09-05T18:17:37.644Z,100291.47
2022-09-05T18:19:46.407Z,100282.03
2022-09-05T18:22:31.548Z,100290.63
2022-09-05T18:25:13.948Z,100294.09
2022-09-05T18:28:03.773Z,100288.00
2022-09-05T18:33:56.303Z,100293.09
2022-09-05T18:35:55.879Z,100287.31
2022-09-05T18:38:51.617Z,100269.84
2022-09-05T18:41:15.723Z,100290.09
2022-09-05T18:44:12.665Z,100285.09
2022-09-05T18:46:49.458Z,100291.47
2022-09-05T18:50:12.563Z,100281.88
2022-09-05T18:52:26.062Z,100292.22
2022-09-05T18:56:11.461Z,100289.09
2022-09-05T18:58:05.868Z,100289.84
2022-09-05T19:00:43.995Z,100290.44
2022-09-05T19:03:31.799Z,100286.81
2022-09-05T19:06:35.076Z,100285.19
2022-09-05T19:09:05.282Z,100285.03
2022-09-05T19:11:56.888Z,100296.44
2022-09-05T19:14:54.359Z,100282.56
2022-09-05T19:17:39.407Z,100286.81
2022-09-05T19:20:31.994Z,100281.88
2022-09-05T19:23:11.747Z,100278.56
2022-09-05T19:25:42.917Z,100284.75
2022-09-05T19:36:45.942Z,100278.47
2022-09-05T19:37:05.765Z,100265.25
2022-09-05T19:37:06.267Z,100275.59
2022-09-05T19:38:13.505Z,100265.59
2022-09-05T19:47:28.971Z,100263.91
2022-09-05T19:47:39.463Z,100272.38
2022-09-05T19:47:44.062Z,100258.66
2022-09-05T20:34:16.478Z,100241.22
2022-09-05T20:43:11.113Z,100250.72
2022-09-05T20:43:14.979Z,100249.84
2022-09-05T20:43:30.868Z,100227.44
2022-09-05T20:45:44.758Z,100255.56
2022-09-05T20:54:07.777Z,100228.72
2022-09-05T20:54:12.984Z,100233.16
2022-09-05T20:54:20.750Z,100244.81
2022-09-05T20:56:56.463Z,100243.66
2022-09-05T20:59:34.310Z,100253.34
2022-09-05T21:02:07.467Z,100231.94
2022-09-05T21:04:39.139Z,100232.72
2022-09-05T21:07:22.146Z,100226.34
2022-09-05T21:09:56.990Z,100256.88
2022-09-05T21:12:28.190Z,100244.47
2022-09-05T21:15:22.979Z,100251.63
2022-09-05T21:18:22.725Z,100246.47
2022-09-05T21:21:02.461Z,100251.94
2022-09-05T21:23:38.820Z,100232.09
2022-09-05T21:26:24.872Z,100249.25
2022-09-05T21:29:16.519Z,100246.69
2022-09-05T21:31:57.682Z,100242.94
2022-09-05T21:34:33.276Z,100212.38
2022-09-05T21:37:07.257Z,100246.47
2022-09-05T21:39:46.752Z,100216.78
2022-09-05T21:47:34.566Z,100230.44
2022-09-05T21:47:47.461Z,100224.78
2022-09-05T21:48:10.895Z,100251.81
2022-09-05T21:50:53.767Z,100226.81
2022-09-05T21:58:09.263Z,100239.16
2022-09-05T21:59:24.724Z,100230.47
2022-09-05T21:59:45.981Z,100204.56
2022-09-05T22:02:08.735Z,100230.09
2022-09-05T22:04:41.776Z,100252.78
2022-09-05T22:07:31.743Z,100231.75
2022-09-05T22:10:05.706Z,100222.72
2022-09-05T22:12:39.378Z,100231.34
2022-09-05T22:15:26.862Z,100238.00
2022-09-05T22:18:16.592Z,100222.66
2022-09-05T22:21:09.845Z,100231.03
2022-09-05T22:23:39.010Z,100231.28
2022-09-05T22:26:07.344Z,100206.38
2022-09-05T22:28:38.786Z,100213.41
2022-09-05T22:31:07.912Z,100224.72
2022-09-05T22:33:36.316Z,100226.75
2022-09-05T22:36:04.760Z,100221.25
2022-09-05T22:38:33.505Z,100198.28
2022-09-05T22:41:00.850Z,100224.34
2022-09-05T22:43:33.110Z,100205.22
2022-09-05T22:46:00.529Z,100217.94
2022-09-05T22:48:28.196Z,100201.47
2022-09-05T22:50:57.771Z,100198.34
2022-09-05T22:53:26.146Z,100199.75
2022-09-05T22:56:03.027Z,100214.53
2022-09-05T22:58:37.226Z,100217.94
2022-09-05T23:01:04.901Z,100182.78
2022-09-05T23:03:32.528Z,100218.19
2022-09-05T23:06:07.545Z,100215.41
2022-09-05T23:08:35.465Z,100218.94
2022-09-05T23:11:11.458Z,100199.47
2022-09-05T23:13:39.750Z,100204.91
2022-09-05T23:16:08.961Z,100223.81
2022-09-05T23:18:36.848Z,100226.44
2022-09-05T23:21:06.384Z,100219.00
2022-09-05T23:23:36.019Z,100217.47
2022-09-05T23:26:09.723Z,100219.97
2022-09-05T23:28:43.148Z,100211.88
2022-09-05T23:31:11.825Z,100226.28
2022-09-05T23:33:41.748Z,100228.81
2022-09-05T23:36:12.936Z,100233.22
2022-09-05T23:38:43.112Z,100225.03
2022-09-05T23:41:13.118Z,100214.63
2022-09-05T23:43:41.025Z,100225.03
2022-09-05T23:46:08.815Z,100211.16
2022-09-05T23:48:36.258Z,100228.97
2022-09-05T23:51:08.975Z,100214.53
2022-09-05T23:53:37.001Z,100224.34
2022-09-05T23:56:06.441Z,100225.34
2022-09-05T23:58:35.616Z,100217.78
